Time;durP1;ratioP1;P1;durP2;ratioP2;P2;SDS_P1;SDS_P2;PMS_P1;PMS_P2;Temp;Humidity;BMP_temperature;BMP_pressure;BME280_temperature;BME280_humidity;BME280_pressure;Samples;Min_cycle;Max_cycle;Signal;HPM_P1;HPM_P2
2022/05/21 00:00:32;;;;;;;12.32;7.55;;;10.90;99.90;;;;;;4986904;28;20122;-74
2022/05/21 00:02:58;;;;;;;13.40;7.60;;;10.90;99.90;;;;;;4986888;28;20377;-74
2022/05/21 00:05:26;;;;;;;12.90;7.10;;;10.80;99.90;;;;;;4986760;28;20597;-75
2022/05/21 00:07:52;;;;;;;19.83;7.93;;;10.80;99.90;;;;;;4986654;28;20077;-74
2022/05/21 00:10:21;;;;;;;13.35;9.40;;;10.90;99.90;;;;;;4986528;28;20148;-74
2022/05/21 00:12:47;;;;;;;18.52;9.10;;;10.80;99.90;;;;;;4985674;28;20046;-74
2022/05/21 00:15:16;;;;;;;15.70;10.15;;;11.00;99.90;;;;;;4987465;28;20394;-74
2022/05/21 00:17:41;;;;;;;25.58;12.80;;;11.00;99.90;;;;;;4986443;28;20038;-74
2022/05/21 00:20:47;;;;;;;19.50;11.23;;;10.90;99.90;;;;;;4986353;28;20539;-75
2022/05/21 00:22:54;;;;;;;23.15;14.18;;;11.00;99.90;;;;;;4986171;28;20821;-75
2022/05/21 00:25:21;;;;;;;17.35;12.27;;;11.10;99.90;;;;;;4986454;28;20698;-73
2022/05/21 00:27:46;;;;;;;24.45;13.80;;;11.20;99.90;;;;;;4984892;28;20046;-74
2022/05/21 00:30:13;;;;;;;25.05;14.70;;;11.30;99.90;;;;;;4986922;28;20530;-74
2022/05/21 00:32:39;;;;;;;23.80;16.67;;;11.30;99.90;;;;;;4986517;28;20054;-73
2022/05/21 00:35:06;;;;;;;24.33;16.67;;;11.40;99.90;;;;;;4986583;28;20092;-73
2022/05/21 00:37:32;;;;;;;34.67;18.67;;;11.60;99.90;;;;;;4985244;28;20448;-73
2022/05/21 00:39:57;;;;;;;31.58;19.23;;;11.70;99.90;;;;;;4986278;28;20038;-73
2022/05/21 00:42:23;;;;;;;44.88;21.70;;;11.70;99.90;;;;;;4983893;28;20054;-73
2022/05/21 00:44:49;;;;;;;37.72;20.58;;;11.80;99.90;;;;;;4986167;28;20046;-73
2022/05/21 00:47:14;;;;;;;37.03;20.45;;;11.80;99.90;;;;;;4985050;28;20097;-73
2022/05/21 00:49:40;;;;;;;33.95;21.35;;;11.80;99.90;;;;;;4986102;28;20053;-74
2022/05/21 00:52:17;;;;;;;33.38;19.40;;;11.80;99.90;;;;;;4986072;28;20046;-74
2022/05/21 00:54:53;;;;;;;33.40;20.55;;;11.90;99.90;;;;;;4985458;28;20549;-74
2022/05/21 00:57:24;;;;;;;33.08;20.65;;;11.90;99.90;;;;;;4985362;28;20104;-73
2022/05/21 00:59:53;;;;;;;33.60;19.45;;;12.00;99.90;;;;;;4984983;28;20088;-74
2022/05/21 01:02:25;;;;;;;27.85;17.50;;;12.10;99.90;;;;;;4984889;28;20050;-74
2022/05/21 01:04:51;;;;;;;34.70;19.45;;;12.20;99.90;;;;;;4968757;28;20054;-74
2022/05/21 01:07:18;;;;;;;37.47;17.95;;;12.30;99.90;;;;;;4985957;28;20054;-74
2022/05/21 01:09:50;;;;;;;30.10;18.48;;;12.20;99.90;;;;;;4986578;28;20657;-74
2022/05/21 01:12:17;;;;;;;30.42;16.50;;;12.30;99.90;;;;;;4985523;28;20523;-74
2022/05/21 01:14:48;;;;;;;26.80;15.65;;;12.50;99.90;;;;;;4986280;28;20058;-74
2022/05/21 01:17:15;;;;;;;24.17;14.80;;;12.40;99.90;;;;;;4968945;28;20061;-74
2022/05/21 01:20:18;;;;;;;24.38;14.70;;;12.50;99.90;;;;;;4985014;28;20133;-74
2022/05/21 01:22:46;;;;;;;33.33;13.70;;;12.40;99.90;;;;;;4954433;28;20149;-74
2022/05/21 01:25:18;;;;;;;32.95;14.23;;;12.60;99.90;;;;;;4986346;28;20081;-74
2022/05/21 01:27:45;;;;;;;39.67;16.92;;;12.60;99.90;;;;;;4985203;28;20074;-74
2022/05/21 01:30:14;;;;;;;31.80;16.10;;;12.50;99.90;;;;;;4987056;28;20129;-74
2022/05/21 01:32:39;;;;;;;21.98;13.77;;;12.60;99.90;;;;;;4989607;28;20128;-74
2022/05/21 01:35:06;;;;;;;26.35;14.52;;;12.70;99.90;;;;;;4989682;28;20118;-74
2022/05/21 01:37:32;;;;;;;30.35;14.88;;;12.50;99.90;;;;;;4972696;28;20054;-74
2022/05/21 01:39:58;;;;;;;25.92;15.15;;;12.50;99.90;;;;;;4988472;28;20046;-74
2022/05/21 01:42:24;;;;;;;26.75;16.05;;;12.70;99.90;;;;;;4988363;28;20086;-74
2022/05/21 01:44:52;;;;;;;28.15;14.57;;;12.60;99.90;;;;;;4989723;28;20039;-74
2022/05/21 01:47:19;;;;;;;27.33;14.90;;;12.60;99.90;;;;;;5009454;23;20500;-74
2022/05/21 01:49:44;;;;;;;26.77;14.00;;;12.60;99.90;;;;;;5010187;28;20053;-74
2022/05/21 01:52:11;;;;;;;31.10;15.52;;;12.70;99.90;;;;;;5009084;28;20511;-74
2022/05/21 01:54:37;;;;;;;27.90;13.88;;;12.70;99.90;;;;;;5007790;28;20046;-75
2022/05/21 01:57:05;;;;;;;30.40;15.57;;;12.60;99.90;;;;;;5008258;28;20416;-75
2022/05/21 01:59:31;;;;;;;34.58;13.57;;;12.70;99.90;;;;;;5009107;28;20488;-75
2022/05/21 02:01:56;;;;;;;25.75;13.65;;;12.70;99.90;;;;;;5007824;28;20054;-75
2022/05/21 02:04:22;;;;;;;26.52;11.85;;;12.70;99.90;;;;;;5007357;28;20045;-76
2022/05/21 02:06:49;;;;;;;25.20;12.75;;;12.70;99.90;;;;;;5007554;28;20046;-75
2022/05/21 02:09:15;;;;;;;21.85;12.52;;;12.80;99.90;;;;;;5008971;28;20488;-75
2022/05/21 02:11:41;;;;;;;27.67;13.85;;;12.70;99.90;;;;;;5007912;28;20045;-75
2022/05/21 02:14:08;;;;;;;26.27;11.75;;;12.70;99.90;;;;;;5007251;28;20415;-75
2022/05/21 02:16:36;;;;;;;27.00;11.95;;;12.70;99.90;;;;;;5009033;28;20624;-75
2022/05/21 02:19:03;;;;;;;29.38;12.18;;;12.70;99.90;;;;;;5007298;28;20053;-75
2022/05/21 02:21:30;;;;;;;34.13;11.10;;;12.80;99.90;;;;;;5007575;28;20050;-75
2022/05/21 02:23:56;;;;;;;28.05;10.27;;;12.80;99.90;;;;;;5008427;28;20042;-75
2022/05/21 02:26:22;;;;;;;24.40;10.13;;;12.90;99.90;;;;;;5006377;28;20052;-76
2022/05/21 02:28:47;;;;;;;30.25;10.68;;;12.90;99.90;;;;;;5008602;28;20060;-76
2022/05/21 02:31:13;;;;;;;38.63;9.68;;;12.90;99.90;;;;;;5007649;28;20046;-75
2022/05/21 02:33:41;;;;;;;19.52;7.60;;;12.80;99.90;;;;;;5008119;28;20045;-75
2022/05/21 02:36:07;;;;;;;22.75;8.13;;;12.80;99.90;;;;;;5008356;28;20317;-75
2022/05/21 02:41:17;;;;;;;22.65;8.00;;;12.80;99.90;;;;;;5006821;28;20568;-75
2022/05/21 02:43:44;;;;;;;17.73;7.80;;;12.80;99.90;;;;;;5008683;28;20136;-75
2022/05/21 02:46:10;;;;;;;19.73;6.70;;;12.80;99.90;;;;;;5007958;28;20045;-75
2022/05/21 02:48:36;;;;;;;22.92;8.00;;;12.90;99.90;;;;;;5008354;28;20102;-75
2022/05/21 02:51:03;;;;;;;29.92;7.82;;;12.80;99.90;;;;;;5006439;28;20484;-75
2022/05/21 02:53:29;;;;;;;32.53;7.63;;;12.70;99.90;;;;;;5008228;28;20046;-76
2022/05/21 02:55:55;;;;;;;29.08;7.82;;;12.80;99.90;;;;;;5005681;28;20057;-74
2022/05/21 02:58:22;;;;;;;23.15;6.93;;;12.80;99.90;;;;;;5007822;28;20084;-74
2022/05/21 03:00:48;;;;;;;25.00;6.68;;;12.80;99.90;;;;;;5007659;28;20046;-74
2022/05/21 03:03:14;;;;;;;30.80;6.95;;;12.90;99.90;;;;;;5007004;28;20046;-74
2022/05/21 03:05:42;;;;;;;30.98;7.82;;;12.80;99.90;;;;;;5006426;28;20136;-75
2022/05/21 03:10:57;;;;;;;31.67;7.63;;;13.00;99.90;;;;;;5006780;28;20385;-75
2022/05/21 03:13:23;;;;;;;20.92;5.07;;;12.90;99.90;;;;;;5007315;28;20042;-74
2022/05/21 03:15:48;;;;;;;37.38;7.07;;;12.90;99.90;;;;;;5007437;28;20114;-74
2022/05/21 03:18:15;;;;;;;18.65;5.53;;;13.00;99.90;;;;;;5006730;28;20397;-75
2022/05/21 03:20:41;;;;;;;27.23;5.90;;;12.90;99.90;;;;;;5007564;28;20052;-74
2022/05/21 03:23:08;;;;;;;31.33;6.75;;;13.00;99.90;;;;;;5007370;28;20160;-75
2022/05/21 03:25:34;;;;;;;38.33;6.28;;;12.90;99.90;;;;;;5006733;28;20042;-75
2022/05/21 03:28:00;;;;;;;26.35;6.50;;;12.90;99.90;;;;;;5007423;28;20510;-74
2022/05/21 03:30:29;;;;;;;28.65;5.70;;;13.10;99.90;;;;;;5007214;28;20049;-74
2022/05/21 03:32:54;;;;;;;23.42;5.55;;;13.10;99.90;;;;;;5007313;28;20054;-75
2022/05/21 03:35:21;;;;;;;21.65;4.43;;;13.00;99.90;;;;;;5007007;28;20041;-73
2022/05/21 03:37:48;;;;;;;18.42;5.72;;;13.10;99.90;;;;;;5007102;28;20046;-73
2022/05/21 03:40:17;;;;;;;29.70;6.25;;;13.00;99.90;;;;;;5007565;28;20064;-73
2022/05/21 03:42:43;;;;;;;18.45;4.78;;;13.00;99.90;;;;;;5006402;28;20095;-74
2022/05/21 03:45:10;;;;;;;25.17;6.53;;;13.10;99.90;;;;;;5006855;28;20121;-74
2022/05/21 03:47:36;;;;;;;19.73;5.18;;;13.10;99.90;;;;;;5006948;28;20077;-76
2022/05/21 03:50:03;;;;;;;18.88;5.03;;;13.00;99.90;;;;;;5006627;28;20062;-75
2022/05/21 03:52:29;;;;;;;28.95;8.10;;;13.10;99.90;;;;;;5006421;28;20038;-74
2022/05/21 03:54:54;;;;;;;13.13;4.00;;;13.10;99.90;;;;;;5006802;28;20041;-75
2022/05/21 03:57:20;;;;;;;16.88;4.60;;;13.10;99.90;;;;;;5004402;28;20049;-74
2022/05/21 03:59:45;;;;;;;23.33;5.05;;;13.10;99.90;;;;;;5005584;28;20050;-75
2022/05/21 04:02:11;;;;;;;11.88;4.60;;;13.10;99.90;;;;;;5006729;28;20136;-74
2022/05/21 04:04:37;;;;;;;20.83;5.32;;;13.10;99.90;;;;;;5007062;28;20121;-76
2022/05/21 04:07:04;;;;;;;21.58;4.30;;;13.10;99.90;;;;;;5006360;28;20583;-74
2022/05/21 04:09:30;;;;;;;16.08;4.68;;;13.00;99.90;;;;;;5006637;28;20553;-76
2022/05/21 04:11:57;;;;;;;14.00;4.05;;;13.10;99.90;;;;;;5005502;28;20117;-76
2022/05/21 04:14:27;;;;;;;18.17;3.95;;;13.00;99.90;;;;;;5006680;28;20578;-75
2022/05/21 04:16:58;;;;;;;16.48;3.95;;;13.10;99.90;;;;;;5006502;28;20049;-75
2022/05/21 04:19:25;;;;;;;16.65;3.65;;;13.00;99.90;;;;;;5005966;28;20037;-75
2022/05/21 04:21:51;;;;;;;24.20;6.70;;;13.00;99.90;;;;;;5004948;28;20115;-74
2022/05/21 04:24:17;;;;;;;13.25;3.78;;;12.90;99.90;;;;;;5006299;28;20046;-74
2022/05/21 04:26:44;;;;;;;13.60;5.22;;;13.00;99.90;;;;;;5005385;28;20030;-74
2022/05/21 04:29:10;;;;;;;22.48;4.70;;;12.90;99.90;;;;;;5006243;28;20042;-75
2022/05/21 04:31:37;;;;;;;19.98;3.33;;;12.90;99.90;;;;;;5006350;28;20371;-75
2022/05/21 04:34:03;;;;;;;11.90;3.38;;;13.00;99.90;;;;;;5004713;28;20046;-75
2022/05/21 04:36:29;;;;;;;14.07;3.95;;;13.00;99.90;;;;;;5006213;28;20041;-75
2022/05/21 04:38:55;;;;;;;14.70;3.70;;;12.90;99.90;;;;;;5006008;28;20488;-74
2022/05/21 04:41:22;;;;;;;14.30;3.45;;;13.00;99.90;;;;;;5003678;28;20096;-74
2022/05/21 04:43:48;;;;;;;18.27;4.93;;;12.90;99.90;;;;;;5006089;28;20052;-74
2022/05/21 04:46:17;;;;;;;10.40;3.28;;;13.00;99.90;;;;;;5004747;28;20096;-75
2022/05/21 04:48:44;;;;;;;15.07;3.97;;;13.00;99.90;;;;;;5006255;28;20056;-76
2022/05/21 04:51:10;;;;;;;15.98;3.38;;;13.00;99.90;;;;;;5005702;28;20377;-75
2022/05/21 04:53:36;;;;;;;10.27;3.22;;;13.00;99.90;;;;;;5005976;28;20042;-76
2022/05/21 04:56:02;;;;;;;14.15;4.60;;;13.10;99.90;;;;;;5004615;28;20121;-75
2022/05/21 04:58:28;;;;;;;16.15;3.28;;;13.10;99.90;;;;;;5005763;28;20129;-75
2022/05/21 05:00:54;;;;;;;21.77;3.55;;;13.10;99.90;;;;;;5005797;28;20050;-75
2022/05/21 05:03:20;;;;;;;14.75;3.97;;;13.10;99.90;;;;;;5004531;28;20128;-75
2022/05/21 05:05:47;;;;;;;15.73;3.85;;;13.10;99.90;;;;;;5008442;28;20142;-74
2022/05/21 05:08:16;;;;;;;11.15;2.83;;;13.20;99.90;;;;;;5010116;28;20042;-73
2022/05/21 05:10:42;;;;;;;8.30;2.35;;;13.10;99.90;;;;;;5008727;28;20041;-74
2022/05/21 05:13:09;;;;;;;11.93;3.75;;;13.10;99.90;;;;;;5009648;28;20046;-74
2022/05/21 05:15:35;;;;;;;15.52;3.20;;;13.20;99.90;;;;;;5009807;28;20053;-74
2022/05/21 05:18:06;;;;;;;16.52;3.50;;;13.20;99.90;;;;;;5009636;28;20037;-74
2022/05/21 05:20:33;;;;;;;16.42;3.08;;;13.10;99.90;;;;;;5008625;28;20187;-75
2022/05/21 05:22:59;;;;;;;19.83;4.18;;;13.20;99.90;;;;;;5009558;28;20058;-75
2022/05/21 05:25:24;;;;;;;13.95;2.70;;;13.20;99.90;;;;;;5008278;28;20042;-74
2022/05/21 05:27:51;;;;;;;15.40;4.30;;;13.20;99.90;;;;;;5009360;28;20053;-74
2022/05/21 05:30:19;;;;;;;20.55;4.72;;;13.20;99.90;;;;;;5009407;28;20125;-74
2022/05/21 05:32:45;;;;;;;14.13;2.95;;;13.30;99.90;;;;;;5008245;28;20096;-75
2022/05/21 05:35:11;;;;;;;16.45;2.85;;;13.20;99.90;;;;;;5009248;28;20046;-74
2022/05/21 05:37:37;;;;;;;13.30;4.18;;;13.20;99.90;;;;;;5009327;28;20633;-75
2022/05/21 05:40:04;;;;;;;11.45;3.22;;;13.30;99.90;;;;;;5008262;28;20099;-74
2022/05/21 05:42:30;;;;;;;16.45;3.67;;;13.30;99.90;;;;;;5009340;28;20054;-75
2022/05/21 05:44:56;;;;;;;12.50;3.70;;;13.30;99.90;;;;;;5009133;28;20052;-75
2022/05/21 05:47:22;;;;;;;17.15;2.88;;;13.30;99.90;;;;;;5008038;28;20053;-75
2022/05/21 05:49:47;;;;;;;14.70;3.17;;;13.30;99.90;;;;;;5008114;28;20408;-75
2022/05/21 05:52:13;;;;;;;18.48;2.65;;;13.40;99.90;;;;;;5009189;28;20046;-75
2022/05/21 05:54:39;;;;;;;17.80;3.95;;;13.40;99.90;;;;;;5008905;28;20053;-75
2022/05/21 05:57:10;;;;;;;14.65;3.33;;;13.40;99.90;;;;;;5006797;28;20069;-75
2022/05/21 05:59:49;;;;;;;14.95;3.35;;;13.40;99.90;;;;;;5008887;28;20386;-74
2022/05/21 06:05:12;;;;;;;17.55;4.18;;;13.40;99.90;;;;;;5008689;28;20048;-75
2022/05/21 06:07:44;;;;;;;27.05;4.80;;;13.50;99.90;;;;;;5008980;28;20407;-75
2022/05/21 06:10:12;;;;;;;13.85;2.85;;;13.60;99.90;;;;;;5006291;28;20038;-75
2022/05/21 06:12:38;;;;;;;10.35;2.45;;;13.60;99.90;;;;;;5008835;28;20045;-75
2022/05/21 06:15:04;;;;;;;13.80;4.10;;;13.70;99.90;;;;;;5008480;28;20068;-76
2022/05/21 06:17:29;;;;;;;12.50;2.70;;;13.60;99.90;;;;;;5008166;28;20038;-75
2022/05/21 06:19:55;;;;;;;13.75;3.83;;;13.60;99.90;;;;;;5008621;28;20042;-75
2022/05/21 06:22:21;;;;;;;26.20;4.68;;;13.60;99.90;;;;;;5008437;28;20054;-75
2022/05/21 06:24:47;;;;;;;13.68;2.90;;;13.70;99.90;;;;;;5007053;28;20045;-76
2022/05/21 06:27:13;;;;;;;15.60;2.75;;;13.90;99.90;;;;;;5007709;28;20092;-75
2022/05/21 06:29:39;;;;;;;15.75;4.13;;;13.80;99.90;;;;;;5008296;28;20496;-75
2022/05/21 06:32:06;;;;;;;10.80;3.15;;;13.80;99.90;;;;;;5008352;28;20046;-75
2022/05/21 06:34:32;;;;;;;13.75;2.58;;;13.80;99.90;;;;;;5008622;28;20081;-75
2022/05/21 06:37:09;;;;;;;19.60;4.43;;;13.90;99.90;;;;;;5007941;28;20176;-76
2022/05/21 06:39:37;;;;;;;12.90;2.83;;;13.90;99.90;;;;;;5008110;28;20042;-75
2022/05/21 06:42:03;;;;;;;6.55;2.40;;;13.90;99.90;;;;;;5021896;28;20054;-74
2022/05/21 06:44:29;;;;;;;16.60;3.92;;;14.10;99.90;;;;;;5008497;28;20502;-76
2022/05/21 06:46:56;;;;;;;15.75;3.35;;;14.00;99.90;;;;;;5006446;28;20042;-76
2022/05/21 06:49:22;;;;;;;18.15;2.63;;;14.00;99.90;;;;;;5023011;28;20076;-76
2022/05/21 06:51:52;;;;;;;12.15;3.70;;;14.10;99.90;;;;;;5007872;28;20507;-75
2022/05/21 06:54:18;;;;;;;10.23;2.72;;;14.20;99.90;;;;;;5007698;28;20436;-76
2022/05/21 06:56:44;;;;;;;13.35;3.33;;;14.40;99.90;;;;;;5007069;28;20100;-74
2022/05/21 06:59:10;;;;;;;20.63;4.30;;;14.20;99.90;;;;;;5007755;28;20042;-75
2022/05/21 07:01:36;;;;;;;15.35;3.28;;;14.50;99.90;;;;;;5007985;28;20052;-75
2022/05/21 07:04:01;;;;;;;12.45;3.58;;;15.00;99.90;;;;;;5007731;28;20046;-75
2022/05/21 07:09:11;;;;;;;8.30;3.35;;;15.80;99.90;;;;;;5007303;28;20049;-76
2022/05/21 07:11:37;;;;;;;21.00;4.80;;;15.70;99.90;;;;;;5006975;28;20200;-76
2022/05/21 07:14:03;;;;;;;10.35;1.77;;;15.70;99.90;;;;;;5007471;28;20085;-76
2022/05/21 07:16:29;;;;;;;13.10;2.78;;;15.80;99.90;;;;;;5007694;28;20117;-76
2022/05/21 07:18:55;;;;;;;20.17;3.78;;;15.00;99.90;;;;;;5007233;28;20485;-76
2022/05/21 07:21:21;;;;;;;14.30;2.83;;;14.90;99.90;;;;;;5007388;28;20057;-76
2022/05/21 07:23:48;;;;;;;14.23;3.63;;;15.90;99.90;;;;;;5006380;28;20432;-76
2022/05/21 07:26:15;;;;;;;12.20;2.30;;;17.00;99.90;;;;;;5006960;28;20373;-74
2022/05/21 07:28:40;;;;;;;13.98;4.07;;;17.40;99.90;;;;;;4988876;28;20057;-76
2022/05/21 07:31:06;;;;;;;11.88;2.47;;;17.90;99.90;;;;;;5007195;28;20060;-75
2022/05/21 07:33:32;;;;;;;12.48;3.05;;;17.80;99.90;;;;;;5007472;28;20045;-75
2022/05/21 07:35:58;;;;;;;11.60;3.47;;;17.80;99.90;;;;;;5006999;28;20042;-76
2022/05/21 07:38:23;;;;;;;9.45;2.55;;;17.40;99.90;;;;;;5006669;28;20302;-75
2022/05/21 07:40:51;;;;;;;12.30;3.33;;;16.60;99.90;;;;;;5006280;28;20046;-76
2022/05/21 07:43:19;;;;;;;12.23;2.38;;;15.60;99.90;;;;;;5005637;28;20060;-75
2022/05/21 07:45:46;;;;;;;13.48;2.92;;;15.50;99.90;;;;;;5007598;28;20038;-76
2022/05/21 07:48:14;;;;;;;17.00;3.50;;;15.50;99.90;;;;;;5005653;28;20129;-76
2022/05/21 07:50:45;;;;;;;12.80;2.75;;;15.70;99.90;;;;;;5006784;28;20061;-76
2022/05/21 07:53:17;;;;;;;11.13;3.13;;;15.80;99.90;;;;;;5006617;28;20107;-76
2022/05/21 07:55:44;;;;;;;13.38;4.47;;;16.00;99.90;;;;;;5006273;28;20042;-76
2022/05/21 07:58:11;;;;;;;18.48;5.85;;;16.00;99.90;;;;;;5006366;28;20038;-76
2022/05/21 08:00:37;;;;;;;17.13;3.55;;;15.60;99.90;;;;;;5006774;28;20073;-76
2022/05/21 08:03:03;;;;;;;11.93;2.40;;;15.40;99.90;;;;;;5005021;28;20412;-76
2022/05/21 08:05:29;;;;;;;12.10;2.92;;;15.50;99.90;;;;;;5006630;28;20030;-76
2022/05/21 08:07:56;;;;;;;13.95;3.03;;;15.30;99.90;;;;;;5006691;28;20454;-75
2022/05/21 08:10:22;;;;;;;8.93;2.35;;;15.30;99.90;;;;;;5005284;28;20042;-75
2022/05/21 08:12:49;;;;;;;15.07;3.80;;;15.40;99.90;;;;;;5004958;28;20060;-76
2022/05/21 08:15:16;;;;;;;15.32;2.83;;;15.40;99.90;;;;;;5006742;28;20173;-75
2022/05/21 08:17:42;;;;;;;12.52;2.25;;;15.50;99.90;;;;;;5006547;28;20135;-77
2022/05/21 08:20:11;;;;;;;30.27;6.18;;;15.90;99.90;;;;;;5004903;28;20130;-75
2022/05/21 08:28:06;;;;;;;17.92;3.17;;;16.00;99.90;;;;;;5006153;28;20460;-75
2022/05/21 08:30:32;;;;;;;10.25;2.55;;;16.20;99.90;;;;;;4988810;28;20049;-76
2022/05/21 08:33:06;;;;;;;19.10;4.43;;;16.50;99.90;;;;;;5005197;28;20042;-76
2022/05/21 08:35:32;;;;;;;14.10;2.83;;;16.20;99.90;;;;;;5006367;28;20092;-76
2022/05/21 08:37:58;;;;;;;13.73;3.25;;;15.80;99.90;;;;;;5004697;28;20473;-77
2022/05/21 08:40:43;;;;;;;15.50;2.75;;;15.60;99.90;;;;;;5004781;28;20188;-77
2022/05/21 08:43:36;;;;;;;13.18;2.42;;;16.00;99.90;;;;;;5004504;28;20442;-75
2022/05/21 08:46:30;;;;;;;13.40;2.05;;;15.90;99.90;;;;;;5002489;28;20193;-76
2022/05/21 08:49:01;;;;;;;9.07;2.45;;;15.90;99.90;;;;;;5005978;28;20049;-76
2022/05/21 08:51:56;;;;;;;10.35;3.15;;;16.60;99.90;;;;;;5005707;28;20049;-75
2022/05/21 08:54:25;;;;;;;12.70;2.63;;;16.50;99.90;;;;;;4997085;28;20066;-76
2022/05/21 08:56:54;;;;;;;13.40;2.60;;;16.30;99.90;;;;;;5005032;28;20038;-77
2022/05/21 08:59:25;;;;;;;10.25;3.13;;;16.30;99.90;;;;;;5020453;28;20065;-75
2022/05/21 09:01:52;;;;;;;12.13;2.25;;;16.60;99.90;;;;;;5005487;28;20053;-78
2022/05/21 09:04:22;;;;;;;11.75;2.67;;;16.90;99.90;;;;;;5005888;28;20046;-75
2022/05/21 09:07:03;;;;;;;13.45;2.53;;;16.80;99.90;;;;;;5006008;28;20121;-75
2022/05/21 09:09:53;;;;;;;10.60;2.00;;;17.20;99.90;;;;;;5019955;28;20382;-75
2022/05/21 09:12:20;;;;;;;;;;;16.50;99.90;;;;;;5005088;28;20054;-76
2022/05/21 09:14:49;;;;;;;10.48;2.55;;;16.30;99.90;;;;;;5004945;28;19922;-76
2022/05/21 09:17:18;;;;;;;8.07;2.38;;;17.00;99.90;;;;;;5006123;28;20400;-77
2022/05/21 09:19:57;;;;;;;10.32;2.60;;;16.80;99.90;;;;;;5005980;28;20530;-77
2022/05/21 09:22:23;;;;;;;14.27;2.88;;;16.30;99.90;;;;;;5005394;28;20121;-76
2022/05/21 09:24:52;;;;;;;16.50;4.50;;;16.10;99.90;;;;;;5004659;28;20046;-77
2022/05/21 09:27:30;;;;;;;6.43;1.67;;;15.90;99.90;;;;;;5005718;28;20089;-77
2022/05/21 09:30:15;;;;;;;9.20;2.85;;;16.00;99.90;;;;;;5005730;28;20065;-76
2022/05/21 09:32:43;;;;;;;11.70;3.15;;;16.30;99.90;;;;;;5004573;28;20436;-76
2022/05/21 09:35:15;;;;;;;10.02;3.10;;;15.90;99.90;;;;;;5005129;28;20103;-75
2022/05/21 09:37:41;;;;;;;10.60;2.58;;;16.00;99.90;;;;;;5005499;28;20113;-77
2022/05/21 09:40:38;;;;;;;10.75;3.22;;;15.90;99.90;;;;;;5003041;28;20053;-75
2022/05/21 09:46:24;;;;;;;10.50;2.42;;;16.10;99.90;;;;;;5005399;28;20381;-76
2022/05/21 09:48:51;;;;;;;16.58;3.28;;;16.00;99.90;;;;;;5005580;28;20566;-77
2022/05/21 09:51:26;;;;;;;17.05;2.42;;;16.10;99.90;;;;;;5006444;28;20115;-78
2022/05/21 09:53:53;;;;;;;10.00;2.10;;;16.10;99.90;;;;;;5008943;28;20072;-77
2022/05/21 09:56:31;;;;;;;9.80;1.67;;;16.20;99.90;;;;;;5008026;28;20400;-76
2022/05/21 09:59:22;;;;;;;10.80;2.58;;;16.60;99.90;;;;;;5023118;28;20046;-77
2022/05/21 10:01:53;;;;;;;12.55;2.33;;;17.00;99.90;;;;;;5005953;28;20515;-77
2022/05/21 10:04:39;;;;;;;8.55;2.20;;;17.00;99.90;;;;;;5008901;28;20046;-76
2022/05/21 10:11:00;;;;;;;7.82;1.42;;;16.10;99.90;;;;;;5007839;28;20053;-77
2022/05/21 10:13:42;;;;;;;11.13;1.93;;;16.10;99.90;;;;;;5007231;28;20624;-78
2022/05/21 10:16:46;;;;;;;14.68;3.00;;;15.80;99.90;;;;;;5008530;28;20049;-76
2022/05/21 10:19:15;;;;;;;5.50;1.73;;;16.40;99.90;;;;;;4991015;28;20481;-77
2022/05/21 10:22:10;;;;;;;10.43;2.47;;;16.70;99.90;;;;;;5008468;28;20046;-76
2022/05/21 10:24:59;;;;;;;13.90;2.85;;;16.50;99.90;;;;;;4988182;28;20064;-77
2022/05/21 10:27:50;;;;;;;6.90;2.78;;;16.30;99.90;;;;;;5008697;28;20069;-77
2022/05/21 10:30:18;;;;;;;12.57;2.55;;;16.20;99.90;;;;;;5007977;28;20050;-76
2022/05/21 10:33:23;;;;;;;10.30;1.63;;;16.50;99.90;;;;;;5007427;28;20085;-77
2022/05/21 10:35:57;;;;;;;11.70;2.78;;;16.70;99.90;;;;;;4997980;28;20057;-78
2022/05/21 10:38:25;;;;;;;8.60;2.00;;;16.90;99.90;;;;;;5006840;28;20058;-77
2022/05/21 10:40:58;;;;;;;9.75;3.40;;;16.70;99.90;;;;;;5006193;28;20034;-77
2022/05/21 10:43:27;;;;;;;13.90;3.50;;;16.50;99.90;;;;;;5007565;28;20080;-77
2022/05/21 10:46:09;;;;;;;11.43;2.40;;;15.90;99.90;;;;;;5008218;28;20050;-76
2022/05/21 10:48:52;;;;;;;7.63;2.63;;;15.90;99.90;;;;;;5009837;28;20056;-77
2022/05/21 10:51:32;;;;;;;9.55;2.35;;;16.00;99.90;;;;;;5007702;28;20591;-76
2022/05/21 10:54:13;;;;;;;11.07;2.47;;;16.60;99.90;;;;;;5008077;28;20042;-77
2022/05/21 10:56:53;;;;;;;10.07;2.42;;;17.00;99.90;;;;;;5008113;28;20058;-76
2022/05/21 10:59:39;;;;;;;9.43;2.17;;;17.30;99.90;;;;;;5007690;28;20080;-77
2022/05/21 11:02:33;;;;;;;9.48;2.65;;;17.40;99.90;;;;;;5008001;28;20053;-76
2022/05/21 11:05:04;;;;;;;14.60;3.20;;;17.60;99.90;;;;;;5006379;28;20062;-76
2022/05/21 11:07:46;;;;;;;13.32;2.58;;;17.50;99.90;;;;;;5008019;28;20129;-76
2022/05/21 11:10:30;;;;;;;11.57;2.88;;;17.80;99.90;;;;;;5007278;28;20492;-76
2022/05/21 11:13:19;;;;;;;4.40;1.23;;;18.10;99.90;;;;;;5007578;28;20046;-76
2022/05/21 11:15:50;;;;;;;11.60;2.92;;;17.50;99.90;;;;;;5007021;28;20044;-76
2022/05/21 11:18:39;;;;;;;6.50;1.65;;;17.30;99.90;;;;;;5007888;28;20049;-77
2022/05/21 11:21:19;;;;;;;6.38;2.00;;;17.40;99.90;;;;;;5007477;28;20101;-77
2022/05/21 11:24:22;;;;;;;7.18;1.85;;;17.70;99.90;;;;;;5006518;28;20077;-76
2022/05/21 11:27:02;;;;;;;6.45;2.30;;;17.30;99.90;;;;;;5006928;28;20504;-77
2022/05/21 11:29:39;;;;;;;9.52;2.65;;;17.70;99.90;;;;;;5007036;28;20511;-77
2022/05/21 11:37:47;;;;;;;6.65;1.73;;;18.00;99.90;;;;;;5007563;28;20049;-77
2022/05/21 11:40:51;;;;;;;7.80;2.30;;;18.00;99.90;;;;;;5021383;28;20034;-75
2022/05/21 11:43:20;;;;;;;10.35;2.13;;;17.80;99.90;;;;;;5005987;28;20054;-75
2022/05/21 11:46:04;;;;;;;17.13;2.42;;;18.30;99.90;;;;;;5007462;28;20091;-77
2022/05/21 11:48:31;;;;;;;8.75;1.73;;;18.50;99.90;;;;;;5006887;28;20093;-77
2022/05/21 11:51:25;;;;;;;8.40;1.83;;;18.20;99.90;;;;;;5007112;28;20038;-77
2022/05/21 11:53:51;;;;;;;12.30;2.20;;;17.70;99.90;;;;;;4997756;28;20054;-76
2022/05/21 11:56:17;;;;;;;10.10;1.85;;;17.70;99.90;;;;;;5004345;28;20149;-76
2022/05/21 11:58:58;;;;;;;5.95;1.27;;;17.60;99.90;;;;;;5006874;28;20048;-77
2022/05/21 12:01:39;;;;;;;8.75;3.42;;;17.90;99.90;;;;;;5006319;28;20100;-76
2022/05/21 12:04:43;;;;;;;10.15;2.42;;;17.80;99.90;;;;;;5005412;28;20041;-79
2022/05/21 12:07:14;;;;;;;7.82;2.75;;;17.90;99.90;;;;;;5006381;28;20154;-77
2022/05/21 12:10:01;;;;;;;7.80;2.25;;;18.20;99.90;;;;;;5005615;28;20137;-77
2022/05/21 12:12:28;;;;;;;11.00;3.00;;;18.20;99.90;;;;;;5006600;28;20042;-77
2022/05/21 12:15:16;;;;;;;10.45;1.90;;;17.80;99.90;;;;;;5005837;28;20049;-78
2022/05/21 12:17:59;;;;;;;5.38;2.05;;;18.20;99.90;;;;;;5006916;28;20045;-77
2022/05/21 12:20:42;;;;;;;5.50;1.40;;;18.90;99.90;;;;;;5006360;28;20176;-78
2022/05/21 12:23:13;;;;;;;6.65;1.20;;;18.70;99.90;;;;;;5006163;28;20053;-76
2022/05/21 12:25:42;;;;;;;9.30;1.90;;;18.90;99.90;;;;;;5003741;28;20555;-78
2022/05/21 12:28:11;;;;;;;4.78;1.15;;;19.10;99.90;;;;;;5004865;28;20046;-76
2022/05/21 12:30:37;;;;;;;7.38;1.65;;;18.60;99.90;;;;;;5006660;28;20400;-77
2022/05/21 12:33:06;;;;;;;7.18;1.58;;;18.90;99.90;;;;;;5004734;28;20129;-77
2022/05/21 12:35:45;;;;;;;7.40;1.40;;;18.80;99.90;;;;;;5006268;28;20046;-77
2022/05/21 12:38:35;;;;;;;6.15;1.80;;;18.50;99.90;;;;;;5005933;28;20058;-75
2022/05/21 12:41:19;;;;;;;;;;;17.90;99.90;;;;;;5005637;28;20049;-76
2022/05/21 12:43:48;;;;;;;6.70;1.42;;;18.30;99.90;;;;;;5006335;28;19921;-78
2022/05/21 12:46:18;;;;;;;9.63;2.65;;;18.40;99.90;;;;;;5006055;28;20046;-76
2022/05/21 12:48:44;;;;;;;10.38;2.10;;;18.20;99.90;;;;;;5006085;28;20042;-76
2022/05/21 12:51:30;;;;;;;5.30;2.17;;;18.40;99.90;;;;;;5005713;28;20204;-76
2022/05/21 12:53:56;;;;;;;8.85;1.25;;;18.20;99.90;;;;;;5019338;28;20413;-76
2022/05/21 12:56:30;;;;;;;8.32;1.23;;;18.00;99.90;;;;;;5005531;28;20042;-76
2022/05/21 12:59:06;;;;;;;3.42;1.40;;;17.80;99.90;;;;;;5004987;28;20038;-77
2022/05/21 13:01:34;;;;;;;8.07;1.77;;;17.90;99.90;;;;;;5004915;28;20489;-77
2022/05/21 13:04:01;;;;;;;4.57;0.98;;;18.00;99.90;;;;;;5006314;28;20096;-77
2022/05/21 13:06:32;;;;;;;4.88;1.90;;;18.00;99.90;;;;;;5004479;28;20042;-77
2022/05/21 13:09:00;;;;;;;5.15;1.10;;;18.00;99.90;;;;;;5005166;28;20099;-78
2022/05/21 13:11:39;;;;;;;10.93;2.20;;;18.00;99.90;;;;;;5004545;28;20536;-77
2022/05/21 13:14:10;;;;;;;8.32;2.05;;;17.60;99.90;;;;;;5004211;28;20042;-77
2022/05/21 13:16:49;;;;;;;10.27;2.63;;;17.60;99.90;;;;;;5005901;28;20467;-78
2022/05/21 13:19:37;;;;;;;8.93;3.55;;;17.90;99.90;;;;;;5005898;28;20050;-77
2022/05/21 13:22:08;;;;;;;4.60;1.25;;;18.20;99.90;;;;;;5005437;28;20512;-76
2022/05/21 13:24:57;;;;;;;10.00;2.05;;;18.00;99.90;;;;;;5005004;28;20049;-77